Time;durP1;ratioP1;P1;durP2;ratioP2;P2;SDS_P1;SDS_P2;PMS_P1;PMS_P2;Temp;Humidity;BMP_temperature;BMP_pressure;BME280_temperature;BME280_humidity;BME280_pressure;Samples;Min_cycle;Max_cycle;Signal;HPM_P1;HPM_P2
2022/03/21 00:01:45;;;;;;;18.80;10.38;;;;;;;;;;5016283;28;20061;-70
2022/03/21 00:04:16;;;;;;;23.92;10.95;;;;;;;;;;5016724;28;20136;-70
2022/03/21 00:06:48;;;;;;;19.40;10.73;;;;;;;;;;5016398;28;20034;-70
2022/03/21 00:09:19;;;;;;;20.08;10.85;;;;;;;;;;5016532;28;20088;-70
2022/03/21 00:12:05;;;;;;;21.05;10.60;;;;;;;;;;5016721;28;20038;-70
2022/03/21 00:14:33;;;;;;;17.30;10.05;;;;;;;;;;5016887;28;20104;-70
2022/03/21 00:20:37;;;;;;;18.65;10.57;;;;;;;;;;5014169;28;20476;-70
2022/03/21 00:23:18;;;;;;;21.80;12.65;;;;;;;;;;5016536;28;20045;-69
2022/03/21 00:25:46;;;;;;;20.48;11.00;;;;;;;;;;5015154;28;20072;-69
2022/03/21 00:28:13;;;;;;;17.48;10.65;;;;;;;;;;5016145;28;20128;-69
2022/03/21 00:30:49;;;;;;;22.15;11.75;;;;;;;;;;5014891;28;20479;-70
2022/03/21 00:33:18;;;;;;;18.17;11.00;;;;;;;;;;5014604;28;20053;-69
2022/03/21 00:36:11;;;;;;;21.15;11.60;;;;;;;;;;5031327;28;20057;-69
2022/03/21 00:39:03;;;;;;;18.83;10.57;;;;;;;;;;5016069;28;20065;-68
2022/03/21 00:41:32;;;;;;;19.45;11.13;;;;;;;;;;5016040;28;20076;-69
2022/03/21 00:44:03;;;;;;;20.65;11.55;;;;;;;;;;5016016;28;20459;-69
2022/03/21 00:46:36;;;;;;;20.65;11.02;;;;;;;;;;5015872;28;20037;-69
2022/03/21 00:49:11;;;;;;;20.73;11.80;;;;;;;;;;5015887;28;20108;-69
2022/03/21 00:51:43;;;;;;;17.33;10.75;;;;;;;;;;5035690;28;20049;-69
2022/03/21 00:54:13;;;;;;;20.35;11.68;;;;;;;;;;5035279;28;20377;-69
2022/03/21 00:56:42;;;;;;;19.67;11.48;;;;;;;;;;5018015;28;20037;-69
2022/03/21 00:59:12;;;;;;;22.58;12.20;;;;;;;;;;5035326;28;20044;-69
2022/03/21 01:01:42;;;;;;;18.83;11.68;;;;;;;;;;5035438;28;20064;-69
2022/03/21 01:04:13;;;;;;;19.27;11.80;;;;;;;;;;5017581;28;20053;-69
2022/03/21 01:06:41;;;;;;;20.88;11.63;;;;;;;;;;5035151;28;20181;-69
2022/03/21 01:09:14;;;;;;;18.65;11.35;;;;;;;;;;5035224;28;20083;-69
2022/03/21 01:11:43;;;;;;;22.17;12.23;;;;;;;;;;5035030;28;20044;-69
2022/03/21 01:14:15;;;;;;;23.02;12.25;;;;;;;;;;5017550;28;20046;-68
2022/03/21 01:16:47;;;;;;;20.13;12.18;;;;;;;;;;5017273;28;20474;-69
2022/03/21 01:19:18;;;;;;;19.75;11.25;;;;;;;;;;5035334;28;20037;-69
2022/03/21 01:21:46;;;;;;;;;;;;;;;;;;5035252;28;20048;-69
2022/03/21 01:24:15;;;;;;;;;;;;;;;;;;5035357;28;20024;-70
2022/03/21 01:26:43;;;;;;;21.05;11.73;;;;;;;;;;5034786;28;19920;-70
2022/03/21 01:29:13;;;;;;;23.60;12.10;;;;;;;;;;5035069;28;20033;-70
2022/03/21 01:31:47;;;;;;;;;;;;;;;;;;5034882;28;20116;-70
2022/03/21 01:34:15;;;;;;;;;;;;;;;;;;5034928;28;19925;-69
2022/03/21 01:36:45;;;;;;;23.02;12.23;;;;;;;;;;5034199;28;19921;-70
2022/03/21 01:39:14;;;;;;;22.63;12.52;;;;;;;;;;5034561;28;20048;-70
2022/03/21 01:41:44;;;;;;;27.77;13.20;;;;;;;;;;5034731;28;20041;-70
2022/03/21 01:44:12;;;;;;;21.40;11.85;;;;;;;;;;5033992;28;20041;-70
2022/03/21 01:46:41;;;;;;;23.38;12.55;;;;;;;;;;5034435;28;20096;-70
2022/03/21 01:49:13;;;;;;;24.48;12.57;;;;;;;;;;5016505;28;20460;-70
2022/03/21 01:51:45;;;;;;;24.90;13.05;;;;;;;;;;5014434;28;20065;-69
2022/03/21 01:57:06;;;;;;;;;;;;;;;;;;5014897;28;19921;-70
2022/03/21 01:59:40;;;;;;;;;;;;;;;;;;5015145;28;20008;-69
2022/03/21 02:02:09;;;;;;;22.67;12.02;;;;;;;;;;5014475;28;20372;-69
2022/03/21 02:04:42;;;;;;;23.52;13.10;;;;;;;;;;5014444;28;20076;-69
2022/03/21 02:07:10;;;;;;;21.65;12.50;;;;;;;;;;5013910;28;20042;-70
2022/03/21 02:09:43;;;;;;;23.58;13.63;;;;;;;;;;5014321;28;20100;-69
2022/03/21 02:12:13;;;;;;;25.48;13.48;;;;;;;;;;5014181;28;20092;-70
2022/03/21 02:14:41;;;;;;;23.55;13.23;;;;;;;;;;5014408;28;20042;-70
2022/03/21 02:17:10;;;;;;;22.30;13.45;;;;;;;;;;5013932;28;20076;-69
2022/03/21 02:19:44;;;;;;;24.33;13.10;;;;;;;;;;5014222;28;20037;-70
2022/03/21 02:22:29;;;;;;;25.77;13.52;;;;;;;;;;5014075;28;20038;-70
2022/03/21 02:25:02;;;;;;;24.70;14.50;;;;;;;;;;5014169;28;20046;-70
2022/03/21 02:27:33;;;;;;;27.55;13.80;;;;;;;;;;5013716;28;20054;-70
2022/03/21 02:30:02;;;;;;;20.85;12.75;;;;;;;;;;5013464;28;20092;-70
2022/03/21 02:32:32;;;;;;;26.33;13.82;;;;;;;;;;5012772;28;20045;-70
2022/03/21 02:35:26;;;;;;;24.48;13.63;;;;;;;;;;5014277;28;20049;-70
2022/03/21 02:37:58;;;;;;;28.67;14.70;;;;;;;;;;5013795;28;20042;-70
2022/03/21 02:40:32;;;;;;;27.48;14.35;;;;;;;;;;5013981;28;20033;-70
2022/03/21 02:42:59;;;;;;;29.98;14.13;;;;;;;;;;5014623;28;20366;-70
2022/03/21 02:48:41;;;;;;;30.17;15.25;;;;;;;;;;5013077;28;20100;-70
2022/03/21 02:51:34;;;;;;;27.10;14.40;;;;;;;;;;5012800;28;20053;-70
2022/03/21 02:54:02;;;;;;;27.40;14.25;;;;;;;;;;5013791;28;20209;-69
2022/03/21 02:56:35;;;;;;;27.38;14.95;;;;;;;;;;5013757;28;20037;-70
2022/03/21 02:59:14;;;;;;;25.17;14.27;;;;;;;;;;5013355;28;20100;-70
2022/03/21 03:01:42;;;;;;;27.85;14.32;;;;;;;;;;5013552;28;20048;-69
2022/03/21 03:04:18;;;;;;;25.05;13.63;;;;;;;;;;5013476;28;20042;-69
2022/03/21 03:06:49;;;;;;;23.75;12.90;;;;;;;;;;5013088;28;20046;-70
2022/03/21 03:09:25;;;;;;;25.95;14.73;;;;;;;;;;5013891;28;20441;-69
2022/03/21 03:11:54;;;;;;;29.70;15.55;;;;;;;;;;5013004;28;20065;-70
2022/03/21 03:14:21;;;;;;;28.02;15.20;;;;;;;;;;5013145;28;20049;-70
2022/03/21 03:16:51;;;;;;;25.88;14.65;;;;;;;;;;5013561;28;20073;-69
2022/03/21 03:19:24;;;;;;;26.30;14.73;;;;;;;;;;5013352;28;20034;-70
2022/03/21 03:21:53;;;;;;;29.05;16.50;;;;;;;;;;5013495;28;20038;-70
2022/03/21 03:24:24;;;;;;;27.02;15.60;;;;;;;;;;5013328;28;20116;-69
2022/03/21 03:26:56;;;;;;;26.13;15.32;;;;;;;;;;5013561;28;20041;-69
2022/03/21 03:29:25;;;;;;;28.88;15.40;;;;;;;;;;5013365;28;20042;-70
2022/03/21 03:31:56;;;;;;;24.65;15.07;;;;;;;;;;5028556;28;20443;-70
2022/03/21 03:34:29;;;;;;;25.08;14.45;;;;;;;;;;5013092;28;20113;-70
2022/03/21 03:36:58;;;;;;;28.15;14.30;;;;;;;;;;5013141;28;20124;-69
2022/03/21 03:39:30;;;;;;;28.10;14.73;;;;;;;;;;5013371;28;20049;-70
2022/03/21 03:42:05;;;;;;;26.08;14.70;;;;;;;;;;5013375;28;20050;-69
2022/03/21 03:44:35;;;;;;;24.77;14.40;;;;;;;;;;5013240;28;20084;-69
2022/03/21 03:47:04;;;;;;;26.83;15.20;;;;;;;;;;5013397;28;20054;-69
2022/03/21 03:49:32;;;;;;;30.83;15.98;;;;;;;;;;5013282;28;20108;-70
2022/03/21 03:52:03;;;;;;;24.52;14.57;;;;;;;;;;5013080;28;20046;-70
2022/03/21 03:54:37;;;;;;;29.67;14.95;;;;;;;;;;5013039;28;20113;-69
2022/03/21 03:57:04;;;;;;;25.67;14.02;;;;;;;;;;5014117;28;20065;-70
2022/03/21 03:59:46;;;;;;;29.52;15.65;;;;;;;;;;5014532;28;20045;-70
2022/03/21 04:02:14;;;;;;;28.45;16.25;;;;;;;;;;5016576;28;20038;-69
2022/03/21 04:08:11;;;;;;;27.63;14.95;;;;;;;;;;5016269;28;20388;-69
2022/03/21 04:11:05;;;;;;;29.52;15.63;;;;;;;;;;5016527;28;20044;-69
2022/03/21 04:13:32;;;;;;;26.38;14.50;;;;;;;;;;5016435;28;20042;-69
2022/03/21 04:16:07;;;;;;;26.73;15.15;;;;;;;;;;5015953;28;20046;-69
2022/03/21 04:18:39;;;;;;;25.52;14.27;;;;;;;;;;5016195;28;20547;-68
2022/03/21 04:21:27;;;;;;;28.02;15.45;;;;;;;;;;5015836;28;20061;-69
2022/03/21 04:23:57;;;;;;;31.83;16.00;;;;;;;;;;5016221;28;20037;-70
2022/03/21 04:26:25;;;;;;;28.92;15.73;;;;;;;;;;5016392;28;20088;-70
2022/03/21 04:28:56;;;;;;;26.48;14.63;;;;;;;;;;5016167;28;20392;-70
2022/03/21 04:31:26;;;;;;;25.45;14.55;;;;;;;;;;5015989;28;20137;-70
2022/03/21 04:33:57;;;;;;;25.60;15.00;;;;;;;;;;5016250;28;20038;-70
2022/03/21 04:36:29;;;;;;;28.50;15.45;;;;;;;;;;5015985;28;20033;-70
2022/03/21 04:38:57;;;;;;;30.27;15.88;;;;;;;;;;5015774;28;20104;-70
2022/03/21 04:41:25;;;;;;;30.98;16.80;;;;;;;;;;5016190;28;20492;-70
2022/03/21 04:43:55;;;;;;;27.98;15.45;;;;;;;;;;5015724;28;20044;-70
2022/03/21 04:46:25;;;;;;;28.13;15.85;;;;;;;;;;5015980;28;20042;-70
2022/03/21 04:48:57;;;;;;;28.20;15.75;;;;;;;;;;5031273;28;20069;-70
2022/03/21 04:51:28;;;;;;;31.52;16.90;;;;;;;;;;5014381;28;20057;-70
2022/03/21 04:53:57;;;;;;;32.63;16.60;;;;;;;;;;5015284;28;20120;-70
2022/03/21 04:56:26;;;;;;;38.65;17.83;;;;;;;;;;5015623;28;20042;-70
2022/03/21 04:58:56;;;;;;;32.05;17.52;;;;;;;;;;5015856;28;20042;-69
2022/03/21 05:01:25;;;;;;;33.05;17.70;;;;;;;;;;5015601;28;20444;-70
2022/03/21 05:03:56;;;;;;;31.55;17.80;;;;;;;;;;5015904;28;20088;-69
2022/03/21 05:06:26;;;;;;;42.85;18.92;;;;;;;;;;5015571;28;20038;-70
2022/03/21 05:08:54;;;;;;;33.67;18.50;;;;;;;;;;5022406;28;20061;-70
2022/03/21 05:11:23;;;;;;;30.08;18.27;;;;;;;;;;5014592;28;20048;-70
2022/03/21 05:13:52;;;;;;;30.20;18.40;;;;;;;;;;5014972;28;20041;-70
2022/03/21 05:16:27;;;;;;;35.08;19.45;;;;;;;;;;5015102;28;20053;-71
2022/03/21 05:18:55;;;;;;;39.45;21.50;;;;;;;;;;5015052;28;20072;-70
2022/03/21 05:31:31;;;;;;;22.83;15.07;;;;;;;;;;5015392;28;20099;-71
2022/03/21 05:36:45;;;;;;;26.23;16.38;;;;;;;;;;5009725;28;20460;-70
2022/03/21 05:39:12;;;;;;;26.38;18.00;;;;;;;;;;5028091;28;20038;-71
2022/03/21 05:41:40;;;;;;;26.58;17.70;;;;;;;;;;5034023;28;20057;-71
2022/03/21 05:44:08;;;;;;;23.33;15.75;;;;;;;;;;5033963;28;20037;-71
2022/03/21 05:46:36;;;;;;;25.60;17.08;;;;;;;;;;5033214;28;20549;-70
2022/03/21 05:49:04;;;;;;;22.90;16.08;;;;;;;;;;5034315;28;20422;-70
2022/03/21 05:51:36;;;;;;;21.75;15.82;;;;;;;;;;5033871;28;20132;-71
2022/03/21 05:54:05;;;;;;;22.05;16.23;;;;;;;;;;5028119;28;20565;-70
2022/03/21 05:56:34;;;;;;;19.70;15.10;;;;;;;;;;5033922;28;20132;-69
2022/03/21 06:01:51;;;;;;;23.35;14.82;;;;;;;;;;5004576;28;20049;-70
2022/03/21 06:04:23;;;;;;;27.08;15.88;;;;;;;;;;5028241;28;20084;-70
2022/03/21 06:06:51;;;;;;;24.15;14.77;;;;;;;;;;5032959;28;20041;-70
2022/03/21 06:09:20;;;;;;;22.55;14.57;;;;;;;;;;5034383;28;20431;-70
2022/03/21 06:11:50;;;;;;;22.00;15.23;;;;;;;;;;5034053;28;20041;-69
2022/03/21 06:14:18;;;;;;;24.42;16.80;;;;;;;;;;5033833;28;20037;-70
2022/03/21 06:16:49;;;;;;;21.92;16.02;;;;;;;;;;5033909;28;20052;-70
2022/03/21 06:19:18;;;;;;;23.02;15.57;;;;;;;;;;5030505;28;20052;-71
2022/03/21 06:21:46;;;;;;;20.67;15.20;;;;;;;;;;5013710;28;20049;-71
2022/03/21 06:24:14;;;;;;;19.75;15.27;;;;;;;;;;5024910;28;20500;-70
2022/03/21 06:26:42;;;;;;;19.55;15.05;;;;;;;;;;5025040;28;20061;-69
2022/03/21 06:29:11;;;;;;;20.77;15.43;;;;;;;;;;5027988;28;20116;-70
2022/03/21 06:31:40;;;;;;;19.63;15.27;;;;;;;;;;5033692;28;20159;-70
2022/03/21 06:34:08;;;;;;;17.98;13.02;;;;;;;;;;5027106;28;20041;-71
2022/03/21 06:36:35;;;;;;;20.65;16.00;;;;;;;;;;5031040;28;20041;-70
2022/03/21 06:39:05;;;;;;;25.77;16.95;;;;;;;;;;5020563;28;20088;-69
2022/03/21 06:41:32;;;;;;;20.48;14.60;;;;;;;;;;5014699;28;20037;-70
2022/03/21 06:44:00;;;;;;;22.10;15.68;;;;;;;;;;5030012;28;20041;-70
2022/03/21 06:46:27;;;;;;;18.88;14.52;;;;;;;;;;5032159;28;20038;-69
2022/03/21 06:48:55;;;;;;;21.67;15.55;;;;;;;;;;5013662;28;20472;-70
2022/03/21 06:51:26;;;;;;;21.98;16.27;;;;;;;;;;5025455;28;20080;-70
2022/03/21 06:53:54;;;;;;;20.70;15.45;;;;;;;;;;5026992;28;20428;-70
2022/03/21 06:56:22;;;;;;;18.48;13.45;;;;;;;;;;5008017;28;20053;-72
2022/03/21 06:58:49;;;;;;;17.85;13.68;;;;;;;;;;4994913;28;20042;-70
2022/03/21 07:01:17;;;;;;;17.80;14.13;;;;;;;;;;4991800;28;20125;-70
2022/03/21 07:03:47;;;;;;;15.93;13.32;;;;;;;;;;4993879;28;20132;-70
2022/03/21 07:06:17;;;;;;;18.17;13.05;;;;;;;;;;4993737;28;20490;-71
2022/03/21 07:08:51;;;;;;;18.30;12.90;;;;;;;;;;4994125;28;20055;-70
2022/03/21 07:11:21;;;;;;;13.20;11.55;;;;;;;;;;4993579;28;20553;-66
2022/03/21 07:13:49;;;;;;;15.68;13.13;;;;;;;;;;4995728;28;20042;-66
2022/03/21 07:16:17;;;;;;;14.30;12.43;;;;;;;;;;5096010;23;20521;-67
2022/03/21 07:18:47;;;;;;;19.17;13.80;;;;;;;;;;5032806;28;20044;-67
2022/03/21 07:21:16;;;;;;;17.52;13.02;;;;;;;;;;5033286;28;20045;-66
2022/03/21 07:23:51;;;;;;;21.15;15.82;;;;;;;;;;5032963;28;20037;-66
2022/03/21 07:26:22;;;;;;;16.48;13.88;;;;;;;;;;5015477;28;20045;-66
2022/03/21 07:28:50;;;;;;;18.20;15.02;;;;;;;;;;5032843;28;20072;-66
2022/03/21 07:31:34;;;;;;;19.10;15.57;;;;;;;;;;5031459;28;20120;-66
2022/03/21 07:34:03;;;;;;;17.65;14.27;;;;;;;;;;5032119;28;20037;-66
2022/03/21 07:36:32;;;;;;;15.90;14.20;;;;;;;;;;5036995;28;20076;-66
2022/03/21 07:39:07;;;;;;;18.55;14.60;;;;;;;;;;5037106;28;20052;-65
2022/03/21 07:41:41;;;;;;;25.70;16.27;;;;;;;;;;5036773;28;20034;-65
2022/03/21 07:44:08;;;;;;;23.55;16.02;;;;;;;;;;5019407;28;20085;-65
2022/03/21 07:49:25;;;;;;;24.23;14.63;;;;;;;;;;5036704;28;20120;-65
2022/03/21 07:51:55;;;;;;;26.65;16.10;;;;;;;;;;5036641;28;20040;-65
2022/03/21 07:54:23;;;;;;;27.95;14.63;;;;;;;;;;5037126;28;20065;-65
2022/03/21 07:56:50;;;;;;;24.48;15.10;;;;;;;;;;5036584;28;20041;-64
2022/03/21 07:59:20;;;;;;;28.05;15.00;;;;;;;;;;5036404;28;20046;-65
2022/03/21 08:01:50;;;;;;;22.02;13.77;;;;;;;;;;5036167;28;20126;-65
2022/03/21 08:04:20;;;;;;;25.10;15.40;;;;;;;;;;5036492;28;20120;-64
2022/03/21 08:06:50;;;;;;;25.25;14.50;;;;;;;;;;5036445;28;20404;-66
2022/03/21 08:09:24;;;;;;;21.52;13.68;;;;;;;;;;5036448;28;20120;-65
2022/03/21 08:11:53;;;;;;;26.23;16.65;;;;;;;;;;5036231;28;20041;-65
2022/03/21 08:14:22;;;;;;;20.17;12.18;;;;;;;;;;5035851;28;20045;-66
2022/03/21 08:16:50;;;;;;;21.05;13.32;;;;;;;;;;5036197;28;20132;-66
2022/03/21 08:19:43;;;;;;;23.10;14.85;;;;;;;;;;5035984;28;20033;-64
2022/03/21 08:22:16;;;;;;;20.92;13.70;;;;;;;;;;5035728;28;20045;-64
2022/03/21 08:24:52;;;;;;;19.48;13.38;;;;;;;;;;5035954;28;20068;-64
2022/03/21 08:27:25;;;;;;;20.42;14.27;;;;;;;;;;5035866;28;20546;-65
2022/03/21 08:29:54;;;;;;;20.40;12.73;;;;;;;;;;5035882;28;20441;-65
2022/03/21 08:32:21;;;;;;;20.60;13.98;;;;;;;;;;5035963;28;20034;-65
2022/03/21 08:34:53;;;;;;;23.70;14.90;;;;;;;;;;5035642;28;20057;-65
2022/03/21 08:37:25;;;;;;;20.90;13.90;;;;;;;;;;5035807;28;20111;-65
2022/03/21 08:39:55;;;;;;;20.60;13.45;;;;;;;;;;5035518;28;20053;-65
2022/03/21 08:42:29;;;;;;;22.02;13.75;;;;;;;;;;5036083;28;20104;-65
2022/03/21 08:45:03;;;;;;;20.45;13.60;;;;;;;;;;5035654;28;20042;-65
2022/03/21 08:47:31;;;;;;;18.20;13.43;;;;;;;;;;5034260;28;20344;-65
2022/03/21 08:50:07;;;;;;;19.85;13.77;;;;;;;;;;5035726;28;20450;-65
2022/03/21 08:52:34;;;;;;;22.15;13.30;;;;;;;;;;5035817;28;20072;-65
2022/03/21 08:55:04;;;;;;;21.20;14.20;;;;;;;;;;5035238;28;20049;-65
2022/03/21 08:57:39;;;;;;;19.40;14.00;;;;;;;;;;5035447;28;20061;-65
2022/03/21 09:00:10;;;;;;;19.52;11.88;;;;;;;;;;5035565;28;20041;-65
2022/03/21 09:02:38;;;;;;;20.90;12.50;;;;;;;;;;5035252;28;20087;-65
2022/03/21 09:05:13;;;;;;;19.52;13.00;;;;;;;;;;5035486;28;20042;-65
2022/03/21 09:07:42;;;;;;;28.38;16.77;;;;;;;;;;5035473;28;20509;-65
2022/03/21 09:10:13;;;;;;;26.08;14.70;;;;;;;;;;5035044;28;20049;-65
2022/03/21 09:12:44;;;;;;;18.35;12.73;;;;;;;;;;5035270;28;20045;-65
2022/03/21 09:15:13;;;;;;;17.67;12.27;;;;;;;;;;5035575;28;20072;-65
2022/03/21 09:17:41;;;;;;;17.70;12.25;;;;;;;;;;5034855;28;20057;-65
2022/03/21 09:20:19;;;;;;;18.98;12.63;;;;;;;;;;5034727;28;20048;-65
2022/03/21 09:22:46;;;;;;;22.00;14.27;;;;;;;;;;5035173;28;20128;-65
2022/03/21 09:25:17;;;;;;;28.70;14.63;;;;;;;;;;5034949;28;20056;-65
2022/03/21 09:27:46;;;;;;;21.90;12.30;;;;;;;;;;5034821;28;20084;-65
2022/03/21 09:30:18;;;;;;;23.08;12.45;;;;;;;;;;5035186;28;20048;-66
2022/03/21 09:32:46;;;;;;;24.23;13.25;;;;;;;;;;5034922;28;20116;-65
2022/03/21 09:35:16;;;;;;;25.08;12.38;;;;;;;;;;5034505;28;20045;-65
2022/03/21 09:37:48;;;;;;;21.35;12.30;;;;;;;;;;5035204;28;20042;-65
2022/03/21 09:40:20;;;;;;;28.25;14.13;;;;;;;;;;5034829;28;20037;-65
2022/03/21 09:42:50;;;;;;;27.15;14.48;;;;;;;;;;5034707;28;20446;-64
2022/03/21 09:45:23;;;;;;;20.92;13.55;;;;;;;;;;5034708;28;20042;-64
2022/03/21 09:48:10;;;;;;;20.08;13.07;;;;;;;;;;5034559;28;20047;-64
2022/03/21 09:50:44;;;;;;;31.50;17.77;;;;;;;;;;5034195;28;20527;-64
2022/03/21 09:53:15;;;;;;;35.42;21.33;;;;;;;;;;5034563;28;20069;-64
2022/03/21 09:55:48;;;;;;;19.55;12.38;;;;;;;;;;5034131;28;20571;-65
2022/03/21 09:58:20;;;;;;;23.60;12.75;;;;;;;;;;5033955;28;20041;-66
2022/03/21 10:00:49;;;;;;;19.25;11.73;;;;;;;;;;5033955;28;20076;-65
2022/03/21 10:03:22;;;;;;;20.80;12.00;;;;;;;;;;5034143;28;20045;-66
2022/03/21 10:05:50;;;;;;;19.40;11.88;;;;;;;;;;5034567;28;20065;-65
2022/03/21 10:08:26;;;;;;;18.33;10.80;;;;;;;;;;5034048;28;20041;-65
2022/03/21 10:11:34;;;;;;;16.83;9.63;;;;;;;;;;5034092;28;20102;-65
2022/03/21 10:14:21;;;;;;;14.57;10.27;;;;;;;;;;5033753;28;20046;-64
2022/03/21 10:16:52;;;;;;;19.98;10.93;;;;;;;;;;5033333;28;20144;-65
2022/03/21 10:19:21;;;;;;;16.95;11.02;;;;;;;;;;5034007;28;20445;-64
2022/03/21 10:22:01;;;;;;;19.48;12.18;;;;;;;;;;5033878;28;20125;-64
2022/03/21 10:24:33;;;;;;;18.77;11.43;;;;;;;;;;5033399;28;20092;-64
2022/03/21 10:27:01;;;;;;;21.85;12.20;;;;;;;;;;5028729;28;20121;-64
2022/03/21 10:29:31;;;;;;;15.52;10.77;;;;;;;;;;5033630;28;20037;-64
2022/03/21 10:32:02;;;;;;;15.23;10.45;;;;;;;;;;5033929;28;20443;-65
2022/03/21 10:34:34;;;;;;;17.67;10.93;;;;;;;;;;5033338;28;20041;-65
2022/03/21 10:37:14;;;;;;;15.90;10.55;;;;;;;;;;5033744;28;20115;-65
2022/03/21 10:39:50;;;;;;;18.08;10.90;;;;;;;;;;5033672;28;20068;-66
2022/03/21 10:42:17;;;;;;;26.40;14.05;;;;;;;;;;5033269;28;20515;-65
2022/03/21 10:44:54;;;;;;;23.17;13.45;;;;;;;;;;5015799;28;20041;-68
2022/03/21 10:47:23;;;;;;;20.05;11.43;;;;;;;;;;5030903;28;20099;-65
2022/03/21 10:49:50;;;;;;;14.25;10.25;;;;;;;;;;5032711;28;20437;-65
2022/03/21 10:52:18;;;;;;;17.08;11.60;;;;;;;;;;5033191;28;20121;-66
2022/03/21 10:54:50;;;;;;;16.45;11.10;;;;;;;;;;5033032;28;20411;-67
2022/03/21 10:57:37;;;;;;;18.13;11.00;;;;;;;;;;5032983;28;20088;-67
2022/03/21 11:00:22;;;;;;;17.02;10.65;;;;;;;;;;5033076;28;20045;-66
2022/03/21 11:03:03;;;;;;;16.33;10.65;;;;;;;;;;5033532;28;20037;-66
2022/03/21 11:05:34;;;;;;;16.30;10.98;;;;;;;;;;5032720;28;20541;-65
2022/03/21 11:08:03;;;;;;;18.55;11.50;;;;;;;;;;5033603;28;20136;-65
2022/03/21 11:10:32;;;;;;;22.05;12.73;;;;;;;;;;5032270;28;20039;-65
2022/03/21 11:13:03;;;;;;;18.15;12.07;;;;;;;;;;5032870;28;20450;-65
2022/03/21 11:15:35;;;;;;;19.50;11.85;;;;;;;;;;5032909;28;20121;-65
2022/03/21 11:18:03;;;;;;;13.40;9.38;;;;;;;;;;5084925;23;20049;-66
2022/03/21 11:20:58;;;;;;;12.65;9.40;;;;;;;;;;5052685;28;20041;-67
2022/03/21 11:23:31;;;;;;;14.43;9.18;;;;;;;;;;5052687;28;20079;-65
2022/03/21 11:26:08;;;;;;;10.57;8.00;;;;;;;;;;5045194;28;20037;-66
2022/03/21 11:28:40;;;;;;;12.38;8.75;;;;;;;;;;5051979;28;20060;-65
2022/03/21 11:31:13;;;;;;;15.07;9.80;;;;;;;;;;5053118;28;20076;-65
2022/03/21 11:33:44;;;;;;;20.02;10.40;;;;;;;;;;5052612;28;20037;-65
2022/03/21 11:36:12;;;;;;;14.27;7.55;;;;;;;;;;5038640;28;20468;-65
2022/03/21 11:38:47;;;;;;;16.65;9.38;;;;;;;;;;5039909;28;20048;-65
2022/03/21 11:41:15;;;;;;;17.17;10.20;;;;;;;;;;5048704;28;20044;-66
2022/03/21 11:43:43;;;;;;;14.60;9.23;;;;;;;;;;5049780;28;20049;-66
2022/03/21 11:46:29;;;;;;;12.30;9.23;;;;;;;;;;5050339;28;20048;-65
2022/03/21 11:49:19;;;;;;;17.75;10.90;;;;;;;;;;5053134;28;20044;-65
2022/03/21 11:51:56;;;;;;;14.50;9.32;;;;;;;;;;5036238;28;20033;-65
2022/03/21 11:54:29;;;;;;;14.70;9.52;;;;;;;;;;5052098;28;20075;-73
2022/03/21 11:56:57;;;;;;;13.02;8.93;;;;;;;;;;5052537;28;20065;-79
2022/03/21 11:59:39;;;;;;;15.90;9.20;;;;;;;;;;5049470;28;20517;-77
2022/03/21 12:02:15;;;;;;;13.90;9.15;;;;;;;;;;5052525;28;20075;-79
2022/03/21 12:04:57;;;;;;;14.85;8.80;;;;;;;;;;5052297;28;20060;-80
2022/03/21 12:08:00;;;;;;;16.48;8.65;;;;;;;;;;5052699;28;20491;-79
2022/03/21 12:10:38;;;;;;;12.80;8.50;;;;;;;;;;5052831;28;20072;-79
2022/03/21 12:13:19;;;;;;;11.38;8.00;;;;;;;;;;5053966;28;20152;-79
2022/03/21 12:15:59;;;;;;;11.88;8.38;;;;;;;;;;5053060;28;20052;-79
2022/03/21 12:18:50;;;;;;;11.85;8.38;;;;;;;;;;5027348;28;20064;-79
2022/03/21 12:21:20;;;;;;;30.35;20.05;;;;;;;;;;5015302;28;20057;-78
2022/03/21 12:24:07;;;;;;;12.10;8.30;;;;;;;;;;5014361;28;20050;-79
2022/03/21 12:26:36;;;;;;;12.52;8.40;;;;;;;;;;5005681;28;20065;-79
2022/03/21 12:29:43;;;;;;;12.20;8.13;;;;;;;;;;5011261;28;20084;-78
2022/03/21 12:32:14;;;;;;;;;;;;;;;;;;5007448;28;20488;-78
2022/03/21 12:35:11;;;;;;;10.93;7.57;;;;;;;;;;5012205;28;19922;-79
2022/03/21 12:37:44;;;;;;;12.35;8.35;;;;;;;;;;5010039;28;20133;-77
2022/03/21 12:40:23;;;;;;;11.20;6.68;;;;;;;;;;4996870;28;20528;-79
2022/03/21 12:42:51;;;;;;;10.30;7.40;;;;;;;;;;4996442;28;20045;-76
2022/03/21 12:45:24;;;;;;;13.30;7.78;;;;;;;;;;4996399;28;20408;-76
2022/03/21 12:48:08;;;;;;;13.77;10.07;;;;;;;;;;4996703;28;20085;-76
2022/03/21 12:50:36;;;;;;;12.40;8.15;;;;;;;;;;4995604;28;20042;-76
2022/03/21 12:53:19;;;;;;;11.02;7.60;;;;;;;;;;4996159;28;20489;-76
2022/03/21 12:55:47;;;;;;;12.40;7.40;;;;;;;;;;4996118;28;20113;-76
2022/03/21 12:58:24;;;;;;;10.52;7.18;;;;;;;;;;4996079;28;20053;-75
2022/03/21 13:00:51;;;;;;;19.77;10.90;;;;;;;;;;4995911;28;20050;-77
2022/03/21 13:03:20;;;;;;;11.77;7.40;;;;;;;;;;5012007;28;20065;-77
2022/03/21 13:11:32;;;;;;;13.10;6.97;;;;;;;;;;4995694;28;20089;-77
2022/03/21 13:14:16;;;;;;;9.52;6.32;;;;;;;;;;5007445;28;20056;-77
2022/03/21 13:16:51;;;;;;;8.98;5.78;;;;;;;;;;5012468;28;20397;-77
2022/03/21 13:19:26;;;;;;;8.00;5.95;;;;;;;;;;5036758;28;20068;-75
2022/03/21 13:22:02;;;;;;;9.13;5.90;;;;;;;;;;5055542;28;20045;-76
2022/03/21 13:24:42;;;;;;;11.95;6.80;;;;;;;;;;5055199;28;20091;-75
2022/03/21 13:27:18;;;;;;;11.63;6.90;;;;;;;;;;5054587;28;20049;-76
2022/03/21 13:29:52;;;;;;;9.48;6.22;;;;;;;;;;5048805;28;20479;-75
2022/03/21 13:32:20;;;;;;;9.77;6.43;;;;;;;;;;5032318;28;20083;-71
2022/03/21 13:34:51;;;;;;;11.68;7.35;;;;;;;;;;5045407;28;20033;-75
2022/03/21 13:37:21;;;;;;;12.88;6.82;;;;;;;;;;5045538;28;20529;-75
2022/03/21 13:39:59;;;;;;;9.50;5.47;;;;;;;;;;5054409;28;20056;-74
2022/03/21 13:42:27;;;;;;;8.15;5.63;;;;;;;;;;5045645;28;20033;-75
2022/03/21 13:45:01;;;;;;;8.13;5.30;;;;;;;;;;5054440;28;20475;-75
2022/03/21 13:47:47;;;;;;;7.40;4.95;;;;;;;;;;5054196;28;20098;-75
2022/03/21 13:50:16;;;;;;;7.50;4.90;;;;;;;;;;5051932;28;20075;-71
2022/03/21 13:52:53;;;;;;;10.00;4.93;;;;;;;;;;5054024;28;20136;-72
2022/03/21 13:55:28;;;;;;;8.85;5.28;;;;;;;;;;5054689;28;20041;-73
2022/03/21 13:58:22;;;;;;;8.68;5.03;;;;;;;;;;5063337;28;20124;-73
2022/03/21 14:00:50;;;;;;;7.43;4.55;;;;;;;;;;5036503;28;20083;-71
2022/03/21 14:03:43;;;;;;;7.75;5.32;;;;;;;;;;5052885;28;20071;-72
2022/03/21 14:06:11;;;;;;;12.55;8.52;;;;;;;;;;5035358;28;20545;-72
2022/03/21 14:08:42;;;;;;;11.90;7.57;;;;;;;;;;5053932;28;20045;-72
2022/03/21 14:11:36;;;;;;;8.90;5.78;;;;;;;;;;5054134;28;20033;-70
2022/03/21 14:14:03;;;;;;;7.93;5.40;;;;;;;;;;5053710;28;20041;-74
2022/03/21 14:17:00;;;;;;;9.95;6.65;;;;;;;;;;5034431;28;20045;-74
2022/03/21 14:19:29;;;;;;;12.45;5.72;;;;;;;;;;5048138;28;20049;-75
2022/03/21 14:21:57;;;;;;;9.15;5.65;;;;;;;;;;5053931;28;20040;-74
2022/03/21 14:24:24;;;;;;;9.18;5.32;;;;;;;;;;5053431;28;20602;-73
2022/03/21 14:26:53;;;;;;;9.35;5.30;;;;;;;;;;5053813;28;20049;-73
2022/03/21 14:29:21;;;;;;;12.18;7.47;;;;;;;;;;5035796;28;20037;-74
2022/03/21 14:31:50;;;;;;;16.55;8.25;;;;;;;;;;5053632;28;20212;-74
2022/03/21 14:34:18;;;;;;;13.05;7.38;;;;;;;;;;5053481;28;20557;-74
2022/03/21 14:36:47;;;;;;;15.07;8.52;;;;;;;;;;5050626;28;20043;-74
2022/03/21 14:39:16;;;;;;;11.48;6.20;;;;;;;;;;5053493;28;20067;-73
2022/03/21 14:41:45;;;;;;;11.85;6.35;;;;;;;;;;5052960;28;20495;-74
2022/03/21 14:44:13;;;;;;;9.27;5.63;;;;;;;;;;5052440;28;20159;-74
2022/03/21 14:46:40;;;;;;;9.75;5.70;;;;;;;;;;5052776;28;20037;-76
2022/03/21 14:49:08;;;;;;;8.75;5.65;;;;;;;;;;5043928;28;20044;-75
2022/03/21 14:51:38;;;;;;;8.15;5.03;;;;;;;;;;5034457;28;20541;-74
2022/03/21 14:54:06;;;;;;;8.93;5.25;;;;;;;;;;5035615;28;20164;-73
2022/03/21 14:56:37;;;;;;;8.13;5.90;;;;;;;;;;5035705;28;20044;-74
2022/03/21 14:59:05;;;;;;;10.23;6.03;;;;;;;;;;5038439;28;20057;-74
2022/03/21 15:02:00;;;;;;;10.30;6.32;;;;;;;;;;5033158;28;20037;-73
2022/03/21 15:08:10;;;;;;;9.13;5.30;;;;;;;;;;5032965;28;20038;-74
2022/03/21 15:10:41;;;;;;;9.55;5.22;;;;;;;;;;5032864;28;20073;-73
2022/03/21 15:13:15;;;;;;;8.80;5.65;;;;;;;;;;5033943;28;20057;-73
2022/03/21 15:15:43;;;;;;;9.23;5.85;;;;;;;;;;5041372;28;20120;-73
2022/03/21 15:18:11;;;;;;;9.20;5.88;;;;;;;;;;5032624;28;20041;-73
2022/03/21 15:20:39;;;;;;;11.05;6.53;;;;;;;;;;5033101;28;20029;-74
2022/03/21 15:23:07;;;;;;;9.60;6.03;;;;;;;;;;5032921;28;20407;-73
2022/03/21 15:25:36;;;;;;;14.55;6.85;;;;;;;;;;5015318;28;20041;-73
2022/03/21 15:28:09;;;;;;;13.40;7.75;;;;;;;;;;5032869;28;20116;-73
2022/03/21 15:31:02;;;;;;;12.13;7.80;;;;;;;;;;5033196;28;20076;-73
2022/03/21 15:33:36;;;;;;;17.58;9.05;;;;;;;;;;5032937;28;20383;-73
2022/03/21 15:41:42;;;;;;;19.15;10.38;;;;;;;;;;5032807;28;20153;-73